sensor_id;sensor_type;location;lat;lon;timestamp;temperature;humidity
8939;DHT22;4504;48.810;9.172;2023-07-02T00:01:57;17.10;99.90
8939;DHT22;4504;48.810;9.172;2023-07-02T00:04:24;17.10;99.90
8939;DHT22;4504;48.810;9.172;2023-07-02T00:06:51;17.20;99.90
8939;DHT22;4504;48.810;9.172;2023-07-02T00:09:18;17.30;99.90
8939;DHT22;4504;48.810;9.172;2023-07-02T00:11:46;17.30;99.90
8939;DHT22;4504;48.810;9.172;2023-07-02T00:14:13;17.30;99.90
8939;DHT22;4504;48.810;9.172;2023-07-02T00:16:44;17.30;99.90
8939;DHT22;4504;48.810;9.172;2023-07-02T00:19:13;17.20;99.90
8939;DHT22;4504;48.810;9.172;2023-07-02T00:21:40;17.10;99.90
8939;DHT22;4504;48.810;9.172;2023-07-02T00:24:07;17.10;99.90
8939;DHT22;4504;48.810;9.172;2023-07-02T00:26:36;17.10;99.90
8939;DHT22;4504;48.810;9.172;2023-07-02T00:29:04;17.00;99.90
8939;DHT22;4504;48.810;9.172;2023-07-02T00:31:32;17.00;99.90
8939;DHT22;4504;48.810;9.172;2023-07-02T00:34:01;17.00;99.90
8939;DHT22;4504;48.810;9.172;2023-07-02T00:36:28;17.00;99.90
8939;DHT22;4504;48.810;9.172;2023-07-02T00:38:55;16.90;99.90
8939;DHT22;4504;48.810;9.172;2023-07-02T00:41:23;16.90;99.90
8939;DHT22;4504;48.810;9.172;2023-07-02T00:43:50;16.90;99.90
8939;DHT22;4504;48.810;9.172;2023-07-02T00:46:21;16.80;99.90
8939;DHT22;4504;48.810;9.172;2023-07-02T00:48:50;16.70;99.90
8939;DHT22;4504;48.810;9.172;2023-07-02T00:51:21;16.80;99.90
8939;DHT22;4504;48.810;9.172;2023-07-02T00:53:49;16.80;99.90
8939;DHT22;4504;48.810;9.172;2023-07-02T00:56:17;16.80;99.90
8939;DHT22;4504;48.810;9.172;2023-07-02T00:58:48;16.80;99.90
8939;DHT22;4504;48.810;9.172;2023-07-02T01:01:16;16.80;99.90
8939;DHT22;4504;48.810;9.172;2023-07-02T01:03:51;16.80;99.90
8939;DHT22;4504;48.810;9.172;2023-07-02T01:06:22;16.90;99.90
8939;DHT22;4504;48.810;9.172;2023-07-02T01:08:52;17.00;99.90
8939;DHT22;4504;48.810;9.172;2023-07-02T01:11:22;16.90;99.90
8939;DHT22;4504;48.810;9.172;2023-07-02T01:13:52;17.00;99.90
8939;DHT22;4504;48.810;9.172;2023-07-02T01:16:20;17.00;99.90
8939;DHT22;4504;48.810;9.172;2023-07-02T01:18:49;17.00;99.90
8939;DHT22;4504;48.810;9.172;2023-07-02T01:21:22;17.00;99.90
8939;DHT22;4504;48.810;9.172;2023-07-02T01:23:50;17.00;99.90
8939;DHT22;4504;48.810;9.172;2023-07-02T01:26:17;17.00;99.90
8939;DHT22;4504;48.810;9.172;2023-07-02T01:28:44;17.00;99.90
8939;DHT22;4504;48.810;9.172;2023-07-02T01:31:11;17.00;99.90
8939;DHT22;4504;48.810;9.172;2023-07-02T01:33:38;16.80;99.90
8939;DHT22;4504;48.810;9.172;2023-07-02T01:36:05;16.80;99.90
8939;DHT22;4504;48.810;9.172;2023-07-02T01:38:33;16.70;99.90
8939;DHT22;4504;48.810;9.172;2023-07-02T01:41:01;16.70;99.90
8939;DHT22;4504;48.810;9.172;2023-07-02T01:43:28;16.70;99.90
8939;DHT22;4504;48.810;9.172;2023-07-02T01:45:56;16.70;99.90
8939;DHT22;4504;48.810;9.172;2023-07-02T01:48:23;16.70;99.90
8939;DHT22;4504;48.810;9.172;2023-07-02T01:50:50;16.80;99.90
8939;DHT22;4504;48.810;9.172;2023-07-02T01:53:18;16.80;99.90
8939;DHT22;4504;48.810;9.172;2023-07-02T01:55:47;16.80;99.90
8939;DHT22;4504;48.810;9.172;2023-07-02T01:58:14;16.80;99.90
8939;DHT22;4504;48.810;9.172;2023-07-02T02:00:41;16.80;99.90
8939;DHT22;4504;48.810;9.172;2023-07-02T02:03:08;16.80;99.90
8939;DHT22;4504;48.810;9.172;2023-07-02T02:05:35;16.80;99.90
8939;DHT22;4504;48.810;9.172;2023-07-02T02:08:03;16.80;99.90
8939;DHT22;4504;48.810;9.172;2023-07-02T02:10:30;16.80;99.90
8939;DHT22;4504;48.810;9.172;2023-07-02T02:12:58;16.80;99.90
8939;DHT22;4504;48.810;9.172;2023-07-02T02:15:25;16.80;99.90
8939;DHT22;4504;48.810;9.172;2023-07-02T02:17:52;16.80;99.90
8939;DHT22;4504;48.810;9.172;2023-07-02T02:20:19;16.90;99.90
8939;DHT22;4504;48.810;9.172;2023-07-02T02:22:46;17.00;99.90
8939;DHT22;4504;48.810;9.172;2023-07-02T02:25:13;17.00;99.90
8939;DHT22;4504;48.810;9.172;2023-07-02T02:27:40;16.90;99.90
8939;DHT22;4504;48.810;9.172;2023-07-02T02:30:10;16.90;99.90
8939;DHT22;4504;48.810;9.172;2023-07-02T02:32:37;17.00;99.90
8939;DHT22;4504;48.810;9.172;2023-07-02T02:35:08;17.10;99.90
8939;DHT22;4504;48.810;9.172;2023-07-02T02:37:37;17.20;99.90
8939;DHT22;4504;48.810;9.172;2023-07-02T02:40:06;17.30;99.90
8939;DHT22;4504;48.810;9.172;2023-07-02T02:42:34;17.30;99.90
8939;DHT22;4504;48.810;9.172;2023-07-02T02:45:02;17.10;99.90
8939;DHT22;4504;48.810;9.172;2023-07-02T02:47:30;17.10;99.90
8939;DHT22;4504;48.810;9.172;2023-07-02T02:49:58;17.20;99.90
8939;DHT22;4504;48.810;9.172;2023-07-02T02:52:25;17.20;99.90
8939;DHT22;4504;48.810;9.172;2023-07-02T02:54:52;17.20;99.90
8939;DHT22;4504;48.810;9.172;2023-07-02T02:57:19;17.20;99.90
8939;DHT22;4504;48.810;9.172;2023-07-02T02:59:46;17.10;99.90
8939;DHT22;4504;48.810;9.172;2023-07-02T03:02:13;17.20;99.90
8939;DHT22;4504;48.810;9.172;2023-07-02T03:04:41;17.10;99.90
8939;DHT22;4504;48.810;9.172;2023-07-02T03:07:10;16.90;99.90
8939;DHT22;4504;48.810;9.172;2023-07-02T03:09:37;17.00;99.90
8939;DHT22;4504;48.810;9.172;2023-07-02T03:12:05;16.90;99.90
8939;DHT22;4504;48.810;9.172;2023-07-02T03:14:32;16.80;99.90
8939;DHT22;4504;48.810;9.172;2023-07-02T03:16:59;16.90;99.90
8939;DHT22;4504;48.810;9.172;2023-07-02T03:19:26;16.80;99.90
8939;DHT22;4504;48.810;9.172;2023-07-02T03:21:54;16.80;99.90
8939;DHT22;4504;48.810;9.172;2023-07-02T03:24:21;16.70;99.90
8939;DHT22;4504;48.810;9.172;2023-07-02T03:26:48;16.60;99.90
8939;DHT22;4504;48.810;9.172;2023-07-02T03:29:15;16.60;99.90
8939;DHT22;4504;48.810;9.172;2023-07-02T03:31:45;16.50;99.90
8939;DHT22;4504;48.810;9.172;2023-07-02T03:34:12;16.60;99.90
8939;DHT22;4504;48.810;9.172;2023-07-02T03:36:39;16.50;99.90
8939;DHT22;4504;48.810;9.172;2023-07-02T03:39:07;16.30;99.90
8939;DHT22;4504;48.810;9.172;2023-07-02T03:41:34;16.30;99.90
8939;DHT22;4504;48.810;9.172;2023-07-02T03:44:01;16.40;99.90
8939;DHT22;4504;48.810;9.172;2023-07-02T03:46:28;16.40;99.90
8939;DHT22;4504;48.810;9.172;2023-07-02T03:48:56;16.50;99.90
8939;DHT22;4504;48.810;9.172;2023-07-02T03:51:23;16.50;99.90
8939;DHT22;4504;48.810;9.172;2023-07-02T03:53:50;16.50;99.90
8939;DHT22;4504;48.810;9.172;2023-07-02T03:56:19;16.50;99.90
8939;DHT22;4504;48.810;9.172;2023-07-02T03:58:45;16.60;99.90
8939;DHT22;4504;48.810;9.172;2023-07-02T04:01:13;16.60;99.90
8939;DHT22;4504;48.810;9.172;2023-07-02T04:03:47;16.70;99.90
8939;DHT22;4504;48.810;9.172;2023-07-02T04:06:14;16.70;99.90
8939;DHT22;4504;48.810;9.172;2023-07-02T04:08:41;16.60;99.90
8939;DHT22;4504;48.810;9.172;2023-07-02T04:11:08;16.60;99.90
8939;DHT22;4504;48.810;9.172;2023-07-02T04:13:36;16.50;99.90
8939;DHT22;4504;48.810;9.172;2023-07-02T04:16:04;16.50;99.90
8939;DHT22;4504;48.810;9.172;2023-07-02T04:18:31;16.50;99.90
8939;DHT22;4504;48.810;9.172;2023-07-02T04:20:58;16.60;99.90
8939;DHT22;4504;48.810;9.172;2023-07-02T04:23:25;16.40;99.90
8939;DHT22;4504;48.810;9.172;2023-07-02T04:25:52;16.40;99.90
8939;DHT22;4504;48.810;9.172;2023-07-02T04:28:19;16.40;99.90
8939;DHT22;4504;48.810;9.172;2023-07-02T04:30:47;16.20;99.90
8939;DHT22;4504;48.810;9.172;2023-07-02T04:33:17;16.10;99.90
8939;DHT22;4504;48.810;9.172;2023-07-02T04:35:44;16.10;99.90
8939;DHT22;4504;48.810;9.172;2023-07-02T04:38:11;16.10;99.90
8939;DHT22;4504;48.810;9.172;2023-07-02T04:40:39;16.20;99.90
8939;DHT22;4504;48.810;9.172;2023-07-02T04:43:07;16.20;99.90
8939;DHT22;4504;48.810;9.172;2023-07-02T04:45:34;16.30;99.90
8939;DHT22;4504;48.810;9.172;2023-07-02T04:48:04;16.40;99.90
8939;DHT22;4504;48.810;9.172;2023-07-02T04:50:31;16.30;99.90
8939;DHT22;4504;48.810;9.172;2023-07-02T04:52:58;16.30;99.90
8939;DHT22;4504;48.810;9.172;2023-07-02T04:55:25;16.20;99.90
8939;DHT22;4504;48.810;9.172;2023-07-02T04:57:51;16.20;99.90
8939;DHT22;4504;48.810;9.172;2023-07-02T05:00:19;16.10;99.90
8939;DHT22;4504;48.810;9.172;2023-07-02T05:02:47;16.10;99.90
8939;DHT22;4504;48.810;9.172;2023-07-02T05:05:16;16.10;99.90
8939;DHT22;4504;48.810;9.172;2023-07-02T05:07:43;16.10;99.90
8939;DHT22;4504;48.810;9.172;2023-07-02T05:10:10;16.20;99.90
8939;DHT22;4504;48.810;9.172;2023-07-02T05:12:37;16.30;99.90
8939;DHT22;4504;48.810;9.172;2023-07-02T05:15:05;16.30;99.90
8939;DHT22;4504;48.810;9.172;2023-07-02T05:17:32;16.30;99.90
8939;DHT22;4504;48.810;9.172;2023-07-02T05:20:02;16.40;99.90
8939;DHT22;4504;48.810;9.172;2023-07-02T05:22:30;16.40;99.90
8939;DHT22;4504;48.810;9.172;2023-07-02T05:24:57;16.50;99.90
8939;DHT22;4504;48.810;9.172;2023-07-02T05:27:24;16.50;99.90
8939;DHT22;4504;48.810;9.172;2023-07-02T05:29:51;16.50;99.90
8939;DHT22;4504;48.810;9.172;2023-07-02T05:32:18;16.60;99.90
8939;DHT22;4504;48.810;9.172;2023-07-02T05:34:45;16.60;99.90
8939;DHT22;4504;48.810;9.172;2023-07-02T05:37:12;16.60;99.90
8939;DHT22;4504;48.810;9.172;2023-07-02T05:39:40;16.50;99.90
8939;DHT22;4504;48.810;9.172;2023-07-02T05:42:07;16.30;99.90
8939;DHT22;4504;48.810;9.172;2023-07-02T05:44:34;16.30;99.90
8939;DHT22;4504;48.810;9.172;2023-07-02T05:47:02;16.40;99.90
8939;DHT22;4504;48.810;9.172;2023-07-02T05:49:29;16.40;99.90
8939;DHT22;4504;48.810;9.172;2023-07-02T05:51:56;16.50;99.90
8939;DHT22;4504;48.810;9.172;2023-07-02T05:54:23;16.60;99.90
8939;DHT22;4504;48.810;9.172;2023-07-02T05:56:52;16.60;99.90
8939;DHT22;4504;48.810;9.172;2023-07-02T05:59:19;16.60;99.90
8939;DHT22;4504;48.810;9.172;2023-07-02T06:01:46;16.70;99.90
8939;DHT22;4504;48.810;9.172;2023-07-02T06:04:13;16.80;99.90
8939;DHT22;4504;48.810;9.172;2023-07-02T06:06:40;16.90;99.90
8939;DHT22;4504;48.810;9.172;2023-07-02T06:09:07;16.90;99.90
8939;DHT22;4504;48.810;9.172;2023-07-02T06:11:34;17.00;99.90
8939;DHT22;4504;48.810;9.172;2023-07-02T06:14:02;17.00;99.90
8939;DHT22;4504;48.810;9.172;2023-07-02T06:16:29;17.00;99.90
8939;DHT22;4504;48.810;9.172;2023-07-02T06:18:56;17.10;99.90
8939;DHT22;4504;48.810;9.172;2023-07-02T06:21:23;17.10;99.90
8939;DHT22;4504;48.810;9.172;2023-07-02T06:23:55;17.20;99.90
8939;DHT22;4504;48.810;9.172;2023-07-02T06:26:23;17.10;99.90
8939;DHT22;4504;48.810;9.172;2023-07-02T06:28:50;17.20;99.90
8939;DHT22;4504;48.810;9.172;2023-07-02T06:31:18;17.20;99.90
8939;DHT22;4504;48.810;9.172;2023-07-02T06:33:45;17.20;99.90
8939;DHT22;4504;48.810;9.172;2023-07-02T06:36:12;17.10;99.90
8939;DHT22;4504;48.810;9.172;2023-07-02T06:38:40;17.10;99.90
8939;DHT22;4504;48.810;9.172;2023-07-02T06:41:07;17.10;99.90
8939;DHT22;4504;48.810;9.172;2023-07-02T06:43:34;17.10;99.90
8939;DHT22;4504;48.810;9.172;2023-07-02T06:46:01;17.10;99.90
8939;DHT22;4504;48.810;9.172;2023-07-02T06:48:30;17.20;99.90
8939;DHT22;4504;48.810;9.172;2023-07-02T06:50:57;17.30;99.90
8939;DHT22;4504;48.810;9.172;2023-07-02T06:53:24;17.30;99.90
8939;DHT22;4504;48.810;9.172;2023-07-02T06:55:51;17.30;99.90
8939;DHT22;4504;48.810;9.172;2023-07-02T06:58:18;17.40;99.90
8939;DHT22;4504;48.810;9.172;2023-07-02T07:00:45;17.40;99.90
8939;DHT22;4504;48.810;9.172;2023-07-02T07:03:12;17.40;99.90
8939;DHT22;4504;48.810;9.172;2023-07-02T07:05:40;17.40;99.90
8939;DHT22;4504;48.810;9.172;2023-07-02T07:08:07;17.50;99.90
8939;DHT22;4504;48.810;9.172;2023-07-02T07:10:34;17.60;99.90
8939;DHT22;4504;48.810;9.172;2023-07-02T07:13:02;17.60;99.90
8939;DHT22;4504;48.810;9.172;2023-07-02T07:15:32;17.70;99.90
8939;DHT22;4504;48.810;9.172;2023-07-02T07:17:59;17.80;99.90
8939;DHT22;4504;48.810;9.172;2023-07-02T07:20:26;17.90;99.90
8939;DHT22;4504;48.810;9.172;2023-07-02T07:22:54;18.00;99.90
8939;DHT22;4504;48.810;9.172;2023-07-02T07:25:21;18.00;99.90
8939;DHT22;4504;48.810;9.172;2023-07-02T07:27:48;18.00;99.90
8939;DHT22;4504;48.810;9.172;2023-07-02T07:30:15;18.00;99.90
8939;DHT22;4504;48.810;9.172;2023-07-02T07:32:48;18.10;99.90
8939;DHT22;4504;48.810;9.172;2023-07-02T07:35:16;18.10;99.90
8939;DHT22;4504;48.810;9.172;2023-07-02T07:37:43;18.10;99.90
8939;DHT22;4504;48.810;9.172;2023-07-02T07:40:12;18.20;99.90
8939;DHT22;4504;48.810;9.172;2023-07-02T07:42:39;18.30;99.90
8939;DHT22;4504;48.810;9.172;2023-07-02T07:45:07;18.30;99.90
8939;DHT22;4504;48.810;9.172;2023-07-02T07:47:34;18.30;99.90
8939;DHT22;4504;48.810;9.172;2023-07-02T07:50:02;18.30;99.90
8939;DHT22;4504;48.810;9.172;2023-07-02T07:52:36;18.30;99.90
8939;DHT22;4504;48.810;9.172;2023-07-02T07:55:04;18.30;99.90
8939;DHT22;4504;48.810;9.172;2023-07-02T07:57:34;18.40;99.90
8939;DHT22;4504;48.810;9.172;2023-07-02T08:00:01;18.40;99.90
8939;DHT22;4504;48.810;9.172;2023-07-02T08:02:42;18.50;99.90
8939;DHT22;4504;48.810;9.172;2023-07-02T08:05:09;18.60;99.90
8939;DHT22;4504;48.810;9.172;2023-07-02T08:07:36;18.70;99.90
8939;DHT22;4504;48.810;9.172;2023-07-02T08:10:03;18.70;99.90
8939;DHT22;4504;48.810;9.172;2023-07-02T08:12:32;18.70;99.90
8939;DHT22;4504;48.810;9.172;2023-07-02T08:14:59;18.80;99.90
8939;DHT22;4504;48.810;9.172;2023-07-02T08:17:26;18.80;99.90
8939;DHT22;4504;48.810;9.172;2023-07-02T08:19:53;18.80;99.90
8939;DHT22;4504;48.810;9.172;2023-07-02T08:22:20;18.50;99.70
8939;DHT22;4504;48.810;9.172;2023-07-02T08:24:47;18.60;99.90
8939;DHT22;4504;48.810;9.172;2023-07-02T08:27:15;18.80;99.40
8939;DHT22;4504;48.810;9.172;2023-07-02T08:29:46;18.90;99.50
8939;DHT22;4504;48.810;9.172;2023-07-02T08:32:13;19.10;99.80
8939;DHT22;4504;48.810;9.172;2023-07-02T08:34:40;19.10;99.10
8939;DHT22;4504;48.810;9.172;2023-07-02T08:37:07;19.20;99.10
8939;DHT22;4504;48.810;9.172;2023-07-02T08:39:34;19.30;98.50
8939;DHT22;4504;48.810;9.172;2023-07-02T08:42:03;19.20;98.40
8939;DHT22;4504;48.810;9.172;2023-07-02T08:44:31;19.30;98.20
8939;DHT22;4504;48.810;9.172;2023-07-02T08:46:59;19.20;97.80
8939;DHT22;4504;48.810;9.172;2023-07-02T08:49:26;19.30;98.30
8939;DHT22;4504;48.810;9.172;2023-07-02T08:51:53;19.40;97.10
8939;DHT22;4504;48.810;9.172;2023-07-02T08:54:20;19.30;96.90
8939;DHT22;4504;48.810;9.172;2023-07-02T08:56:47;19.40;96.80
8939;DHT22;4504;48.810;9.172;2023-07-02T08:59:14;19.40;96.80
8939;DHT22;4504;48.810;9.172;2023-07-02T09:01:45;19.60;96.40
8939;DHT22;4504;48.810;9.172;2023-07-02T09:04:18;19.60;95.90
8939;DHT22;4504;48.810;9.172;2023-07-02T09:06:45;19.70;96.30
8939;DHT22;4504;48.810;9.172;2023-07-02T09:09:12;19.80;95.10
8939;DHT22;4504;48.810;9.172;2023-07-02T09:11:49;19.70;94.40
8939;DHT22;4504;48.810;9.172;2023-07-02T09:14:27;19.80;94.70
8939;DHT22;4504;48.810;9.172;2023-07-02T09:17:07;20.00;95.10
8939;DHT22;4504;48.810;9.172;2023-07-02T09:19:47;20.00;94.50
8939;DHT22;4504;48.810;9.172;2023-07-02T09:22:14;20.00;94.70
8939;DHT22;4504;48.810;9.172;2023-07-02T09:24:51;20.20;95.10
8939;DHT22;4504;48.810;9.172;2023-07-02T09:27:18;20.30;95.70
8939;DHT22;4504;48.810;9.172;2023-07-02T09:29:50;20.30;94.70
8939;DHT22;4504;48.810;9.172;2023-07-02T09:32:24;20.30;95.00
8939;DHT22;4504;48.810;9.172;2023-07-02T09:34:54;20.40;94.30
8939;DHT22;4504;48.810;9.172;2023-07-02T09:37:22;20.30;94.10
8939;DHT22;4504;48.810;9.172;2023-07-02T09:39:50;20.40;93.90
8939;DHT22;4504;48.810;9.172;2023-07-02T09:42:19;20.50;94.00
8939;DHT22;4504;48.810;9.172;2023-07-02T09:44:46;20.50;93.30
8939;DHT22;4504;48.810;9.172;2023-07-02T09:47:16;20.50;94.00
8939;DHT22;4504;48.810;9.172;2023-07-02T09:49:49;20.50;93.60
8939;DHT22;4504;48.810;9.172;2023-07-02T09:52:20;20.60;93.60
8939;DHT22;4504;48.810;9.172;2023-07-02T09:54:47;20.80;93.70
8939;DHT22;4504;48.810;9.172;2023-07-02T09:57:14;20.90;93.80
8939;DHT22;4504;48.810;9.172;2023-07-02T09:59:42;21.10;93.30
8939;DHT22;4504;48.810;9.172;2023-07-02T10:02:09;21.10;93.50
8939;DHT22;4504;48.810;9.172;2023-07-02T10:04:40;21.00;91.90
8939;DHT22;4504;48.810;9.172;2023-07-02T10:07:08;20.90;92.50
8939;DHT22;4504;48.810;9.172;2023-07-02T10:09:38;21.00;93.00
8939;DHT22;4504;48.810;9.172;2023-07-02T10:12:20;21.10;92.60
8939;DHT22;4504;48.810;9.172;2023-07-02T10:14:49;21.20;92.10
8939;DHT22;4504;48.810;9.172;2023-07-02T10:17:27;21.00;92.20
8939;DHT22;4504;48.810;9.172;2023-07-02T10:19:58;21.00;92.90
8939;DHT22;4504;48.810;9.172;2023-07-02T10:22:26;21.20;92.70
8939;DHT22;4504;48.810;9.172;2023-07-02T10:24:56;21.30;92.20
8939;DHT22;4504;48.810;9.172;2023-07-02T10:27:36;21.40;92.00
8939;DHT22;4504;48.810;9.172;2023-07-02T10:30:04;21.20;92.10
8939;DHT22;4504;48.810;9.172;2023-07-02T10:32:32;21.30;91.90
8939;DHT22;4504;48.810;9.172;2023-07-02T10:35:01;21.10;92.10
8939;DHT22;4504;48.810;9.172;2023-07-02T10:37:36;21.20;92.60
8939;DHT22;4504;48.810;9.172;2023-07-02T10:40:07;21.60;92.70
8939;DHT22;4504;48.810;9.172;2023-07-02T10:42:44;21.90;91.20
8939;DHT22;4504;48.810;9.172;2023-07-02T10:45:11;21.80;90.60
8939;DHT22;4504;48.810;9.172;2023-07-02T10:47:39;21.60;91.00
8939;DHT22;4504;48.810;9.172;2023-07-02T10:50:14;21.50;91.50
8939;DHT22;4504;48.810;9.172;2023-07-02T10:52:41;21.50;91.00
8939;DHT22;4504;48.810;9.172;2023-07-02T10:55:10;21.80;90.60
8939;DHT22;4504;48.810;9.172;2023-07-02T10:57:39;21.90;90.80
8939;DHT22;4504;48.810;9.172;2023-07-02T11:00:07;22.50;89.30
8939;DHT22;4504;48.810;9.172;2023-07-02T11:02:34;22.30;87.10
8939;DHT22;4504;48.810;9.172;2023-07-02T11:05:01;22.60;84.10
8939;DHT22;4504;48.810;9.172;2023-07-02T11:07:29;22.60;83.60
8939;DHT22;4504;48.810;9.172;2023-07-02T11:09:56;22.20;86.10
8939;DHT22;4504;48.810;9.172;2023-07-02T11:12:29;22.10;86.90
8939;DHT22;4504;48.810;9.172;2023-07-02T11:15:07;21.80;85.80
8939;DHT22;4504;48.810;9.172;2023-07-02T11:17:34;21.90;85.40
8939;DHT22;4504;48.810;9.172;2023-07-02T11:20:02;22.30;85.00
8939;DHT22;4504;48.810;9.172;2023-07-02T11:22:31;22.90;82.70
8939;DHT22;4504;48.810;9.172;2023-07-02T11:25:09;23.60;81.10
8939;DHT22;4504;48.810;9.172;2023-07-02T11:27:37;24.90;78.40
8939;DHT22;4504;48.810;9.172;2023-07-02T11:30:05;24.40;73.70
8939;DHT22;4504;48.810;9.172;2023-07-02T11:32:46;23.80;76.30
8939;DHT22;4504;48.810;9.172;2023-07-02T11:35:14;23.40;78.10
8939;DHT22;4504;48.810;9.172;2023-07-02T11:37:41;23.60;78.50
8939;DHT22;4504;48.810;9.172;2023-07-02T11:40:09;23.70;75.20
8939;DHT22;4504;48.810;9.172;2023-07-02T11:42:38;23.60;75.40
8939;DHT22;4504;48.810;9.172;2023-07-02T11:45:06;24.00;73.30
8939;DHT22;4504;48.810;9.172;2023-07-02T11:47:33;24.40;72.60
8939;DHT22;4504;48.810;9.172;2023-07-02T11:50:00;23.80;73.80
8939;DHT22;4504;48.810;9.172;2023-07-02T11:52:27;23.60;75.70
8939;DHT22;4504;48.810;9.172;2023-07-02T11:54:54;24.10;72.90
8939;DHT22;4504;48.810;9.172;2023-07-02T11:57:21;23.70;72.50
8939;DHT22;4504;48.810;9.172;2023-07-02T11:59:50;23.30;75.00
8939;DHT22;4504;48.810;9.172;2023-07-02T12:02:18;23.30;75.70
8939;DHT22;4504;48.810;9.172;2023-07-02T12:04:45;23.20;77.30
8939;DHT22;4504;48.810;9.172;2023-07-02T12:07:13;24.00;75.00
8939;DHT22;4504;48.810;9.172;2023-07-02T12:09:40;23.80;70.10
8939;DHT22;4504;48.810;9.172;2023-07-02T12:12:08;23.50;71.50
8939;DHT22;4504;48.810;9.172;2023-07-02T12:14:35;23.80;72.10
8939;DHT22;4504;48.810;9.172;2023-07-02T12:17:04;23.80;73.30
8939;DHT22;4504;48.810;9.172;2023-07-02T12:19:31;23.50;74.00
8939;DHT22;4504;48.810;9.172;2023-07-02T12:21:58;24.10;73.80
8939;DHT22;4504;48.810;9.172;2023-07-02T12:24:25;24.80;68.50
8939;DHT22;4504;48.810;9.172;2023-07-02T12:26:52;25.10;63.30
8939;DHT22;4504;48.810;9.172;2023-07-02T12:29:19;24.80;61.10
8939;DHT22;4504;48.810;9.172;2023-07-02T12:31:46;24.60;62.80
8939;DHT22;4504;48.810;9.172;2023-07-02T12:34:14;24.30;64.60
8939;DHT22;4504;48.810;9.172;2023-07-02T12:36:41;24.40;65.10
8939;DHT22;4504;48.810;9.172;2023-07-02T12:39:09;24.40;63.80
8939;DHT22;4504;48.810;9.172;2023-07-02T12:41:36;24.80;63.10
8939;DHT22;4504;48.810;9.172;2023-07-02T12:44:03;25.20;61.20
8939;DHT22;4504;48.810;9.172;2023-07-02T12:46:30;24.80;62.20
8939;DHT22;4504;48.810;9.172;2023-07-02T12:48:57;24.60;61.90
8939;DHT22;4504;48.810;9.172;2023-07-02T12:51:25;25.30;60.30
8939;DHT22;4504;48.810;9.172;2023-07-02T12:53:52;25.50;58.90
8939;DHT22;4504;48.810;9.172;2023-07-02T12:56:19;26.20;58.10
8939;DHT22;4504;48.810;9.172;2023-07-02T12:58:46;25.60;56.60
8939;DHT22;4504;48.810;9.172;2023-07-02T13:01:13;24.90;58.80
8939;DHT22;4504;48.810;9.172;2023-07-02T13:03:45;24.80;58.60
8939;DHT22;4504;48.810;9.172;2023-07-02T13:06:12;24.70;58.70
8939;DHT22;4504;48.810;9.172;2023-07-02T13:08:41;25.10;59.60
8939;DHT22;4504;48.810;9.172;2023-07-02T19:24:42;22.10;60.20
8939;DHT22;4504;48.810;9.172;2023-07-02T19:27:11;21.90;60.80
8939;DHT22;4504;48.810;9.172;2023-07-02T19:29:39;21.80;60.60
8939;DHT22;4504;48.810;9.172;2023-07-02T19:32:07;21.80;60.90
8939;DHT22;4504;48.810;9.172;2023-07-02T19:34:34;21.80;61.60
8939;DHT22;4504;48.810;9.172;2023-07-02T19:37:02;21.70;61.10
8939;DHT22;4504;48.810;9.172;2023-07-02T19:39:29;21.80;62.60
8939;DHT22;4504;48.810;9.172;2023-07-02T19:41:58;21.70;61.90
8939;DHT22;4504;48.810;9.172;2023-07-02T19:44:25;21.60;62.20
8939;DHT22;4504;48.810;9.172;2023-07-02T19:46:52;21.60;63.10
8939;DHT22;4504;48.810;9.172;2023-07-02T19:49:19;21.60;63.10
8939;DHT22;4504;48.810;9.172;2023-07-02T19:51:46;21.60;63.10
8939;DHT22;4504;48.810;9.172;2023-07-02T19:54:16;21.50;63.20
8939;DHT22;4504;48.810;9.172;2023-07-02T19:56:43;21.50;64.00
8939;DHT22;4504;48.810;9.172;2023-07-02T19:59:11;21.40;63.90
8939;DHT22;4504;48.810;9.172;2023-07-02T20:01:38;21.30;64.20
8939;DHT22;4504;48.810;9.172;2023-07-02T20:04:08;21.30;64.70
8939;DHT22;4504;48.810;9.172;2023-07-02T20:06:41;21.30;65.00
8939;DHT22;4504;48.810;9.172;2023-07-02T20:09:08;21.30;65.70
8939;DHT22;4504;48.810;9.172;2023-07-02T20:11:35;21.30;65.30
8939;DHT22;4504;48.810;9.172;2023-07-02T20:14:02;21.20;65.50
8939;DHT22;4504;48.810;9.172;2023-07-02T20:16:30;21.20;66.20
8939;DHT22;4504;48.810;9.172;2023-07-02T20:18:57;21.10;65.80
8939;DHT22;4504;48.810;9.172;2023-07-02T20:21:24;21.10;66.40
8939;DHT22;4504;48.810;9.172;2023-07-02T20:23:51;21.00;66.80
8939;DHT22;4504;48.810;9.172;2023-07-02T20:26:18;21.00;67.20
8939;DHT22;4504;48.810;9.172;2023-07-02T20:28:45;20.90;67.50
8939;DHT22;4504;48.810;9.172;2023-07-02T20:31:12;20.90;67.60
8939;DHT22;4504;48.810;9.172;2023-07-02T20:33:40;20.80;67.80
8939;DHT22;4504;48.810;9.172;2023-07-02T20:36:12;20.70;68.20
8939;DHT22;4504;48.810;9.172;2023-07-02T20:38:39;20.70;68.40
8939;DHT22;4504;48.810;9.172;2023-07-02T20:41:07;20.60;68.90
8939;DHT22;4504;48.810;9.172;2023-07-02T20:43:36;20.60;69.20
8939;DHT22;4504;48.810;9.172;2023-07-02T20:46:08;20.50;69.20
8939;DHT22;4504;48.810;9.172;2023-07-02T20:48:36;20.50;69.80
8939;DHT22;4504;48.810;9.172;2023-07-02T20:51:05;20.40;70.10
8939;DHT22;4504;48.810;9.172;2023-07-02T20:53:32;20.40;70.20
8939;DHT22;4504;48.810;9.172;2023-07-02T20:55:59;20.40;70.70
8939;DHT22;4504;48.810;9.172;2023-07-02T20:58:26;20.30;71.40
8939;DHT22;4504;48.810;9.172;2023-07-02T21:01:00;20.20;72.20
8939;DHT22;4504;48.810;9.172;2023-07-02T21:03:27;20.00;72.80
8939;DHT22;4504;48.810;9.172;2023-07-02T21:05:54;19.90;73.50
8939;DHT22;4504;48.810;9.172;2023-07-02T21:08:25;19.80;74.00
8939;DHT22;4504;48.810;9.172;2023-07-02T21:10:52;19.80;74.20
8939;DHT22;4504;48.810;9.172;2023-07-02T21:13:19;19.70;74.60
8939;DHT22;4504;48.810;9.172;2023-07-02T21:15:53;19.70;74.80
8939;DHT22;4504;48.810;9.172;2023-07-02T21:18:20;19.60;75.00
8939;DHT22;4504;48.810;9.172;2023-07-02T21:20:47;19.50;75.30
8939;DHT22;4504;48.810;9.172;2023-07-02T21:23:14;19.50;75.30
8939;DHT22;4504;48.810;9.172;2023-07-02T21:25:43;19.60;75.60
8939;DHT22;4504;48.810;9.172;2023-07-02T21:28:10;19.60;75.60
8939;DHT22;4504;48.810;9.172;2023-07-02T21:30:37;19.60;75.60
8939;DHT22;4504;48.810;9.172;2023-07-02T21:33:04;19.60;75.70
8939;DHT22;4504;48.810;9.172;2023-07-02T21:35:31;19.50;75.80
8939;DHT22;4504;48.810;9.172;2023-07-02T21:37:58;19.60;75.60
8939;DHT22;4504;48.810;9.172;2023-07-02T21:40:25;19.60;75.70
8939;DHT22;4504;48.810;9.172;2023-07-02T21:42:53;19.60;76.70
8939;DHT22;4504;48.810;9.172;2023-07-02T21:45:20;19.50;75.80
8939;DHT22;4504;48.810;9.172;2023-07-02T21:47:49;19.50;76.40
8939;DHT22;4504;48.810;9.172;2023-07-02T21:50:16;19.30;77.20
8939;DHT22;4504;48.810;9.172;2023-07-02T21:52:44;19.10;78.20
8939;DHT22;4504;48.810;9.172;2023-07-02T21:55:11;19.00;79.10
8939;DHT22;4504;48.810;9.172;2023-07-02T21:57:38;19.00;80.00
8939;DHT22;4504;48.810;9.172;2023-07-02T22:00:07;18.90;81.20
8939;DHT22;4504;48.810;9.172;2023-07-02T22:02:41;18.90;81.10
8939;DHT22;4504;48.810;9.172;2023-07-02T22:05:09;18.80;81.50
8939;DHT22;4504;48.810;9.172;2023-07-02T22:07:36;18.80;82.50
8939;DHT22;4504;48.810;9.172;2023-07-02T22:10:04;18.90;81.80
8939;DHT22;4504;48.810;9.172;2023-07-02T22:12:34;18.90;82.00
8939;DHT22;4504;48.810;9.172;2023-07-02T22:15:01;18.80;82.50
8939;DHT22;4504;48.810;9.172;2023-07-02T22:17:30;18.80;82.80
8939;DHT22;4504;48.810;9.172;2023-07-02T22:19:57;18.70;83.00
8939;DHT22;4504;48.810;9.172;2023-07-02T22:22:26;18.70;83.50